Time;durP1;ratioP1;P1;durP2;ratioP2;P2;SDS_P1;SDS_P2;PMS_P1;PMS_P2;Temp;Humidity;BMP_temperature;BMP_pressure;BME280_temperature;BME280_humidity;BME280_pressure;Samples;Min_cycle;Max_cycle;Signal;HPM_P1;HPM_P2
2022/12/09 00:00:00;;;;;;;14.73;7.57;;;2.20;99.90;;;;;;5108107;28;20050;-76
2022/12/09 00:02:27;;;;;;;13.13;5.63;;;2.00;99.90;;;;;;5113933;28;20051;-76
2022/12/09 00:04:53;;;;;;;13.53;6.60;;;2.00;99.90;;;;;;5112857;28;20023;-76
2022/12/09 00:07:18;;;;;;;12.00;6.67;;;2.00;99.90;;;;;;5114155;28;20023;-76
2022/12/09 00:09:44;;;;;;;12.80;6.50;;;2.00;99.90;;;;;;5113871;28;20031;-74
2022/12/09 00:12:09;;;;;;;13.90;6.87;;;2.00;99.90;;;;;;5113191;28;20038;-75
2022/12/09 00:14:35;;;;;;;13.17;6.40;;;2.00;99.90;;;;;;5112960;28;20031;-74
2022/12/09 00:17:00;;;;;;;14.10;6.67;;;2.00;99.90;;;;;;5095695;28;20047;-74
2022/12/09 00:19:26;;;;;;;13.33;7.60;;;1.90;99.90;;;;;;5105949;28;20030;-74
2022/12/09 00:21:51;;;;;;;16.33;7.07;;;1.90;99.90;;;;;;5102377;28;20028;-75
2022/12/09 00:24:17;;;;;;;13.30;6.30;;;1.80;99.90;;;;;;5102927;28;20032;-74
2022/12/09 00:26:43;;;;;;;14.27;6.67;;;1.80;99.90;;;;;;5109550;28;20024;-75
2022/12/09 00:29:09;;;;;;;12.13;6.40;;;1.70;99.90;;;;;;5110874;28;20502;-75
2022/12/09 00:31:36;;;;;;;12.33;6.43;;;1.70;99.90;;;;;;5103952;28;20035;-76
2022/12/09 00:34:05;;;;;;;12.57;6.40;;;1.80;99.90;;;;;;5103880;28;20107;-76
2022/12/09 00:36:31;;;;;;;15.33;6.37;;;1.80;99.90;;;;;;5113618;28;20023;-74
2022/12/09 00:38:57;;;;;;;12.37;6.60;;;1.70;99.90;;;;;;5099574;28;20054;-75
2022/12/09 00:41:24;;;;;;;16.30;6.80;;;1.60;99.90;;;;;;5111495;28;20028;-74
2022/12/09 00:43:49;;;;;;;14.47;6.60;;;1.60;99.90;;;;;;5101116;28;20024;-75
2022/12/09 00:46:15;;;;;;;14.17;7.03;;;1.60;99.90;;;;;;5105300;28;20038;-75
2022/12/09 00:48:44;;;;;;;18.13;6.73;;;1.60;99.90;;;;;;5112313;28;20023;-74
2022/12/09 00:51:13;;;;;;;14.47;6.23;;;1.60;99.90;;;;;;5112089;28;20038;-75
2022/12/09 00:53:38;;;;;;;12.53;6.60;;;1.50;99.90;;;;;;5113724;28;20376;-76
2022/12/09 00:56:05;;;;;;;12.23;6.10;;;1.40;99.90;;;;;;5112001;28;20020;-79
2022/12/09 00:58:30;;;;;;;12.33;6.30;;;1.40;99.90;;;;;;5111615;28;20019;-75
2022/12/09 01:00:56;;;;;;;13.70;6.40;;;1.40;99.90;;;;;;5112081;28;20384;-75
2022/12/09 01:03:21;;;;;;;13.87;5.93;;;1.40;99.90;;;;;;5111270;28;20117;-75
2022/12/09 01:05:47;;;;;;;10.80;5.90;;;1.30;99.90;;;;;;5112601;28;20468;-75
2022/12/09 01:08:14;;;;;;;12.30;6.23;;;1.30;99.90;;;;;;5113198;28;20027;-75
2022/12/09 01:10:42;;;;;;;11.33;5.93;;;1.30;99.90;;;;;;5113621;28;20030;-75
2022/12/09 01:13:08;;;;;;;12.27;6.20;;;1.30;99.90;;;;;;5111557;28;20038;-79
2022/12/09 01:15:35;;;;;;;12.03;6.03;;;1.30;99.90;;;;;;5111547;28;20047;-75
2022/12/09 01:18:00;;;;;;;11.20;5.80;;;1.30;99.90;;;;;;5112198;28;20114;-75
2022/12/09 01:20:26;;;;;;;8.97;5.20;;;1.30;99.90;;;;;;5111397;28;20042;-75
2022/12/09 01:22:52;;;;;;;12.63;5.83;;;1.30;99.90;;;;;;5111967;28;20035;-75
2022/12/09 01:25:18;;;;;;;15.27;6.07;;;1.30;99.90;;;;;;5111491;28;20028;-74
2022/12/09 01:27:43;;;;;;;12.53;5.70;;;1.20;99.90;;;;;;5111973;28;20020;-74
2022/12/09 01:30:11;;;;;;;12.07;5.93;;;1.10;99.90;;;;;;5111515;28;20035;-77
2022/12/09 01:32:37;;;;;;;10.57;5.87;;;1.00;99.90;;;;;;5113214;28;20056;-74
2022/12/09 01:35:03;;;;;;;10.43;5.77;;;0.90;99.90;;;;;;5113286;28;20031;-74
2022/12/09 01:37:34;;;;;;;13.63;5.47;;;0.90;99.90;;;;;;5111318;28;20530;-74
2022/12/09 01:40:00;;;;;;;11.73;5.67;;;0.90;99.90;;;;;;5111841;28;20023;-74
2022/12/09 01:42:26;;;;;;;12.80;6.30;;;0.80;99.90;;;;;;5110910;28;20472;-74
2022/12/09 01:45:22;;;;;;;11.50;5.43;;;0.80;99.90;;;;;;5111626;28;20031;-74
2022/12/09 01:47:53;;;;;;;12.03;5.63;;;0.70;99.90;;;;;;5115132;28;20090;-74
2022/12/09 01:50:19;;;;;;;11.57;5.90;;;0.70;99.90;;;;;;5114651;28;20024;-75
2022/12/09 01:52:47;;;;;;;13.60;5.33;;;0.70;99.90;;;;;;5111688;28;20047;-74
2022/12/09 01:55:13;;;;;;;10.80;5.50;;;0.70;99.90;;;;;;5111405;28;20119;-74
2022/12/09 01:57:39;;;;;;;10.67;5.20;;;0.70;99.90;;;;;;5112776;28;20150;-74
2022/12/09 02:00:05;;;;;;;11.20;5.53;;;0.70;99.90;;;;;;5111855;28;20027;-74
2022/12/09 02:02:34;;;;;;;8.63;5.03;;;0.60;99.90;;;;;;5111246;28;20050;-74
2022/12/09 02:05:00;;;;;;;10.80;4.90;;;0.70;99.90;;;;;;5111933;28;20034;-74
2022/12/09 02:07:26;;;;;;;10.13;4.63;;;0.70;99.90;;;;;;5111539;28;20024;-74
2022/12/09 02:09:52;;;;;;;8.77;4.77;;;0.70;99.90;;;;;;5111798;28;20126;-74
2022/12/09 02:12:20;;;;;;;8.87;5.20;;;0.70;99.90;;;;;;5110714;28;20476;-74
2022/12/09 02:14:53;;;;;;;10.33;4.90;;;0.70;99.90;;;;;;5111194;28;20027;-74
2022/12/09 02:17:38;;;;;;;10.83;4.97;;;0.80;99.90;;;;;;5111495;28;20135;-74
2022/12/09 02:20:25;;;;;;;8.63;4.83;;;0.80;99.90;;;;;;5115483;28;20027;-74
2022/12/09 02:23:06;;;;;;;8.37;4.83;;;0.80;99.90;;;;;;5115739;28;20023;-74
2022/12/09 02:25:46;;;;;;;8.47;4.93;;;0.90;99.90;;;;;;5114977;28;20349;-74
2022/12/09 02:28:42;;;;;;;11.67;5.20;;;0.80;99.90;;;;;;5115199;28;20028;-77
2022/12/09 02:31:20;;;;;;;10.03;5.03;;;0.90;99.90;;;;;;5115567;28;20031;-74
2022/12/09 02:34:18;;;;;;;9.03;4.60;;;0.90;99.90;;;;;;5115310;28;20027;-74
2022/12/09 02:37:07;;;;;;;8.03;4.17;;;0.90;99.90;;;;;;5116304;28;20020;-74
2022/12/09 02:39:52;;;;;;;9.57;5.03;;;0.90;99.90;;;;;;5114879;28;20027;-74
2022/12/09 02:42:21;;;;;;;10.30;5.27;;;0.90;99.90;;;;;;5114514;28;20031;-74
2022/12/09 02:44:50;;;;;;;9.10;4.37;;;0.90;99.90;;;;;;5115086;28;20088;-73
2022/12/09 02:47:19;;;;;;;9.40;5.10;;;0.90;99.90;;;;;;5114786;28;20472;-74
2022/12/09 02:49:47;;;;;;;10.43;5.20;;;0.90;99.90;;;;;;5115199;28;20023;-74
2022/12/09 02:52:13;;;;;;;13.20;6.10;;;0.80;99.90;;;;;;5114428;28;20028;-77
2022/12/09 02:54:40;;;;;;;11.50;5.37;;;0.80;99.90;;;;;;5115891;28;20020;-74
2022/12/09 02:57:18;;;;;;;12.17;5.77;;;0.80;99.90;;;;;;5115055;28;20027;-74
2022/12/09 02:59:44;;;;;;;10.80;5.53;;;0.80;99.90;;;;;;5115030;28;20047;-74
2022/12/09 03:02:10;;;;;;;12.37;6.23;;;0.80;99.90;;;;;;5115719;28;20059;-74
2022/12/09 03:04:39;;;;;;;11.10;5.33;;;0.80;99.90;;;;;;5114418;28;20118;-74
2022/12/09 03:07:38;;;;;;;12.00;5.67;;;0.70;99.90;;;;;;5116320;27;20453;-74
2022/12/09 03:10:21;;;;;;;10.87;5.37;;;0.70;99.90;;;;;;5081139;28;20027;-74
2022/12/09 03:12:55;;;;;;;12.43;5.93;;;0.60;99.90;;;;;;5116113;28;20023;-74
2022/12/09 03:15:25;;;;;;;12.07;5.87;;;0.70;99.90;;;;;;5114795;27;20468;-74
2022/12/09 03:17:52;;;;;;;14.87;5.37;;;0.60;99.90;;;;;;5116143;28;20031;-74
2022/12/09 03:20:26;;;;;;;14.20;6.33;;;0.60;99.90;;;;;;5114103;28;20020;-75
2022/12/09 03:22:56;;;;;;;11.80;5.87;;;0.50;99.90;;;;;;5114272;28;20035;-75
2022/12/09 03:25:33;;;;;;;10.60;5.73;;;0.50;99.90;;;;;;5114828;28;20070;-75
2022/12/09 03:28:05;;;;;;;12.03;5.80;;;0.50;99.90;;;;;;5114290;28;20019;-74
2022/12/09 03:30:35;;;;;;;12.57;5.50;;;0.50;99.90;;;;;;5114041;28;20483;-74
2022/12/09 03:33:03;;;;;;;11.13;5.60;;;0.50;99.90;;;;;;5115379;28;20523;-74
2022/12/09 03:35:32;;;;;;;12.13;5.53;;;0.50;99.90;;;;;;5114681;28;20059;-74
2022/12/09 03:38:03;;;;;;;12.87;6.00;;;0.50;99.90;;;;;;5114220;28;20069;-74
2022/12/09 03:40:30;;;;;;;12.33;5.47;;;0.50;99.90;;;;;;5113031;28;20110;-75
2022/12/09 03:43:11;;;;;;;11.27;6.20;;;0.50;99.90;;;;;;5093598;28;20035;-74
2022/12/09 03:45:39;;;;;;;9.97;5.30;;;0.40;99.90;;;;;;5092887;28;20062;-74
2022/12/09 03:48:05;;;;;;;10.60;5.77;;;0.40;99.90;;;;;;5094883;28;20036;-74
2022/12/09 03:50:42;;;;;;;10.50;5.87;;;0.40;99.90;;;;;;5094536;28;20095;-74
2022/12/09 03:53:20;;;;;;;12.20;6.10;;;0.40;99.90;;;;;;5093665;28;20381;-74
2022/12/09 03:56:02;;;;;;;12.13;5.90;;;0.40;99.90;;;;;;5093280;28;20081;-74
2022/12/09 03:58:32;;;;;;;12.00;5.53;;;0.40;99.90;;;;;;5092981;28;20469;-74
2022/12/09 04:00:58;;;;;;;12.67;5.87;;;0.30;99.90;;;;;;5093156;28;20070;-74
2022/12/09 04:03:24;;;;;;;13.00;6.20;;;0.40;99.90;;;;;;5093776;28;20036;-74
2022/12/09 04:05:50;;;;;;;9.80;5.60;;;0.30;99.90;;;;;;5093411;28;20426;-74
2022/12/09 04:08:15;;;;;;;11.67;6.00;;;0.40;99.90;;;;;;5094320;28;20165;-79
2022/12/09 04:10:41;;;;;;;11.37;6.10;;;0.40;99.90;;;;;;5092585;28;20024;-74
2022/12/09 04:13:06;;;;;;;11.63;5.93;;;0.40;99.90;;;;;;5093272;28;20040;-74
2022/12/09 04:15:32;;;;;;;15.10;5.83;;;0.40;99.90;;;;;;5092074;28;20052;-74
2022/12/09 04:17:58;;;;;;;15.33;6.27;;;0.40;99.90;;;;;;5093180;28;20028;-73
2022/12/09 04:20:23;;;;;;;12.87;6.80;;;0.40;99.90;;;;;;5093323;28;20028;-74
2022/12/09 04:22:49;;;;;;;12.87;6.03;;;0.40;99.90;;;;;;5092989;28;20024;-74
2022/12/09 04:25:14;;;;;;;14.33;6.87;;;0.40;99.90;;;;;;5093418;28;20085;-74
2022/12/09 04:27:40;;;;;;;15.97;7.10;;;0.40;99.90;;;;;;5092045;28;20123;-73
2022/12/09 04:30:06;;;;;;;12.00;6.50;;;0.50;99.90;;;;;;5092530;28;20031;-74
2022/12/09 04:32:32;;;;;;;15.00;6.40;;;0.40;99.90;;;;;;5093049;28;20036;-74
2022/12/09 04:34:58;;;;;;;13.57;6.33;;;0.40;99.90;;;;;;5092187;28;20035;-74
2022/12/09 04:37:23;;;;;;;13.87;6.90;;;0.40;99.90;;;;;;5093265;28;20026;-74
2022/12/09 04:39:49;;;;;;;15.77;7.10;;;0.40;99.90;;;;;;5092513;28;20050;-74
2022/12/09 04:42:14;;;;;;;13.93;7.70;;;0.40;99.90;;;;;;5093457;28;20024;-74
2022/12/09 04:44:40;;;;;;;17.07;7.27;;;0.40;99.90;;;;;;5093320;28;20028;-74
2022/12/09 04:47:06;;;;;;;16.67;7.87;;;0.40;99.90;;;;;;5092377;28;20519;-74
2022/12/09 04:49:31;;;;;;;16.73;7.73;;;0.40;99.90;;;;;;5091663;28;20024;-74
2022/12/09 04:51:57;;;;;;;13.93;7.20;;;0.40;99.90;;;;;;5093439;28;20100;-74
2022/12/09 04:54:22;;;;;;;14.20;7.10;;;0.30;99.90;;;;;;5091622;28;20024;-75
2022/12/09 04:56:48;;;;;;;17.10;7.20;;;0.30;99.90;;;;;;5091843;28;20046;-74
2022/12/09 04:59:14;;;;;;;12.80;7.03;;;0.30;99.90;;;;;;5092130;28;20028;-74
2022/12/09 05:01:40;;;;;;;15.80;7.53;;;0.30;99.90;;;;;;5092613;28;20024;-74
2022/12/09 05:04:06;;;;;;;19.47;7.07;;;0.30;99.90;;;;;;5091973;28;20358;-74
2022/12/09 05:06:31;;;;;;;13.57;7.43;;;0.30;99.90;;;;;;5091393;28;20457;-74
2022/12/09 05:08:57;;;;;;;15.80;7.70;;;0.30;99.90;;;;;;5091919;28;20111;-74
2022/12/09 05:11:23;;;;;;;14.07;6.80;;;0.30;99.90;;;;;;5092448;28;20052;-78
2022/12/09 05:13:50;;;;;;;13.90;6.70;;;0.30;99.90;;;;;;5091575;28;20036;-74
2022/12/09 05:16:17;;;;;;;15.07;6.77;;;0.30;99.90;;;;;;5091220;28;20067;-74
2022/12/09 05:18:43;;;;;;;15.73;7.27;;;0.30;99.90;;;;;;5092171;28;20024;-73
2022/12/09 05:21:13;;;;;;;14.93;6.70;;;0.20;99.90;;;;;;5091498;28;20053;-73
2022/12/09 05:23:39;;;;;;;16.63;7.77;;;0.20;99.90;;;;;;5091786;28;20028;-74
2022/12/09 05:26:06;;;;;;;16.00;6.77;;;0.30;99.90;;;;;;5091447;28;20039;-74
2022/12/09 05:28:32;;;;;;;16.07;7.37;;;0.20;99.90;;;;;;5091181;28;20496;-74
2022/12/09 05:31:03;;;;;;;14.03;7.57;;;0.20;99.90;;;;;;5091560;28;20024;-74
2022/12/09 05:33:29;;;;;;;15.57;7.80;;;0.10;99.90;;;;;;5091261;28;20035;-74
2022/12/09 05:35:54;;;;;;;16.00;7.23;;;0.20;99.90;;;;;;5091494;28;20028;-74
2022/12/09 05:38:21;;;;;;;14.03;7.17;;;0.20;99.90;;;;;;5091583;28;20047;-75
2022/12/09 05:40:46;;;;;;;12.40;6.70;;;0.30;99.90;;;;;;5092321;28;20046;-74
2022/12/09 05:43:12;;;;;;;15.53;7.83;;;0.20;99.90;;;;;;5097742;28;20078;-74
2022/12/09 05:45:37;;;;;;;18.43;8.27;;;0.20;99.90;;;;;;5090717;28;20031;-74
2022/12/09 05:48:03;;;;;;;14.50;7.50;;;0.10;99.90;;;;;;5092871;28;20081;-73
2022/12/09 05:50:29;;;;;;;15.57;7.77;;;0.10;99.90;;;;;;5091955;28;20028;-74
2022/12/09 05:52:54;;;;;;;16.37;7.23;;;0.10;99.90;;;;;;5094707;28;20039;-74
2022/12/09 05:55:20;;;;;;;15.17;7.50;;;0.10;99.90;;;;;;5095588;28;20487;-74
2022/12/09 05:57:46;;;;;;;16.33;8.17;;;0.10;99.90;;;;;;5095030;28;20028;-74
2022/12/09 06:00:12;;;;;;;16.97;7.43;;;0.10;99.90;;;;;;5095451;28;20066;-74
2022/12/09 06:02:38;;;;;;;15.70;7.03;;;0.10;99.90;;;;;;5094894;28;20542;-75
2022/12/09 06:05:04;;;;;;;13.63;6.97;;;0.00;99.90;;;;;;5095499;28;20028;-75
2022/12/09 06:07:30;;;;;;;15.10;7.40;;;0.10;99.90;;;;;;5095385;28;20377;-74
2022/12/09 06:09:56;;;;;;;14.90;7.47;;;0.10;99.90;;;;;;5096008;28;20028;-73
2022/12/09 06:12:21;;;;;;;14.20;6.90;;;0.00;99.90;;;;;;5095926;28;20038;-74
2022/12/09 06:14:47;;;;;;;13.50;6.83;;;0.10;99.90;;;;;;5094927;28;20020;-74
2022/12/09 06:17:12;;;;;;;17.10;7.93;;;0.10;99.90;;;;;;5095330;28;20059;-74
2022/12/09 06:19:38;;;;;;;12.80;6.37;;;0.20;99.90;;;;;;5095995;28;20020;-75
2022/12/09 06:22:03;;;;;;;13.57;7.43;;;0.20;99.90;;;;;;5095289;28;20035;-75
2022/12/09 06:24:29;;;;;;;14.07;7.60;;;0.10;99.90;;;;;;5095118;28;20032;-74
2022/12/09 06:26:55;;;;;;;14.73;7.20;;;0.10;99.90;;;;;;5096383;28;20103;-75
2022/12/09 06:29:20;;;;;;;18.17;7.53;;;0.10;99.90;;;;;;5096554;28;20055;-74
2022/12/09 06:31:46;;;;;;;15.63;7.50;;;0.10;99.90;;;;;;5094845;28;20016;-75
2022/12/09 06:34:12;;;;;;;15.57;7.40;;;0.10;99.90;;;;;;5094544;28;20028;-75
2022/12/09 06:36:38;;;;;;;16.07;7.60;;;0.10;99.90;;;;;;5094461;28;20032;-74
2022/12/09 06:39:04;;;;;;;18.40;7.20;;;0.20;99.90;;;;;;5093791;28;20028;-76
2022/12/09 06:41:29;;;;;;;15.63;7.67;;;0.20;99.90;;;;;;5107646;28;20028;-75
2022/12/09 06:43:58;;;;;;;16.53;7.10;;;0.20;99.90;;;;;;5115696;28;20038;-75
2022/12/09 06:46:25;;;;;;;15.27;7.03;;;0.20;99.90;;;;;;5104816;28;20088;-75
2022/12/09 06:48:52;;;;;;;17.40;7.57;;;0.10;99.90;;;;;;5111741;28;20089;-74
2022/12/09 06:51:18;;;;;;;14.53;7.03;;;0.10;99.90;;;;;;5098600;28;20517;-74
2022/12/09 06:53:44;;;;;;;14.80;6.83;;;0.20;99.90;;;;;;5107022;28;20122;-73
2022/12/09 06:56:11;;;;;;;13.57;6.47;;;0.10;99.90;;;;;;5114791;28;20362;-74
2022/12/09 06:58:37;;;;;;;14.23;6.93;;;0.10;99.90;;;;;;5099930;28;20028;-75
2022/12/09 07:01:12;;;;;;;14.37;7.67;;;0.10;99.90;;;;;;5094132;28;20055;-73
2022/12/09 07:03:38;;;;;;;14.30;7.60;;;0.00;99.90;;;;;;5092899;28;20031;-74
2022/12/09 07:06:03;;;;;;;14.10;7.20;;;0.00;99.90;;;;;;5093885;28;20028;-74
2022/12/09 07:08:29;;;;;;;13.10;6.60;;;-0.10;99.90;;;;;;5113309;28;20043;-75
2022/12/09 07:10:55;;;;;;;13.47;7.17;;;0.00;99.90;;;;;;5102075;28;20019;-75
2022/12/09 07:13:20;;;;;;;18.80;7.73;;;0.10;99.90;;;;;;5114447;28;20118;-74
2022/12/09 07:15:46;;;;;;;13.40;7.47;;;0.10;99.90;;;;;;5102909;28;20373;-75
2022/12/09 07:18:11;;;;;;;14.50;6.70;;;0.10;99.90;;;;;;5109694;28;20028;-74
2022/12/09 07:20:37;;;;;;;16.13;6.87;;;0.00;99.90;;;;;;5095309;28;20335;-74
2022/12/09 07:23:02;;;;;;;13.33;6.73;;;0.10;99.90;;;;;;5093376;28;20051;-74
2022/12/09 07:25:28;;;;;;;15.47;8.27;;;0.10;99.90;;;;;;5093575;28;20028;-78
2022/12/09 07:27:54;;;;;;;15.10;7.47;;;0.00;99.90;;;;;;5108078;28;20028;-73
2022/12/09 07:30:19;;;;;;;17.87;8.30;;;0.10;99.90;;;;;;5114136;28;20027;-74
2022/12/09 07:32:45;;;;;;;15.83;7.60;;;0.10;99.90;;;;;;5113641;28;20666;-73
2022/12/09 07:35:10;;;;;;;20.27;8.43;;;0.10;99.90;;;;;;5105709;28;20031;-73
2022/12/09 07:37:36;;;;;;;16.40;8.47;;;0.10;99.90;;;;;;5103781;28;20026;-74
2022/12/09 07:40:02;;;;;;;16.43;7.67;;;0.10;99.90;;;;;;5109493;28;20388;-74
2022/12/09 07:42:27;;;;;;;15.73;7.53;;;0.10;99.90;;;;;;5106331;28;20032;-74
2022/12/09 07:44:53;;;;;;;16.67;7.97;;;0.20;99.90;;;;;;5121680;28;20046;-72
2022/12/09 07:47:18;;;;;;;13.70;7.47;;;0.20;99.90;;;;;;5109886;28;20028;-73
2022/12/09 07:49:44;;;;;;;14.63;7.83;;;0.20;99.90;;;;;;5104100;28;20027;-73
2022/12/09 07:52:11;;;;;;;17.53;8.40;;;0.20;99.90;;;;;;5097631;28;20522;-73
2022/12/09 07:54:36;;;;;;;14.50;7.00;;;0.20;99.90;;;;;;5094414;28;20024;-73
2022/12/09 07:57:02;;;;;;;13.27;7.57;;;0.20;99.90;;;;;;5107195;28;20074;-75
2022/12/09 07:59:28;;;;;;;15.40;8.17;;;0.20;99.90;;;;;;5101796;28;20380;-77
2022/12/09 08:01:53;;;;;;;12.40;7.13;;;0.20;99.90;;;;;;5114309;28;20028;-74
2022/12/09 08:04:19;;;;;;;15.83;7.57;;;0.20;99.90;;;;;;5113417;28;20034;-73
2022/12/09 08:06:44;;;;;;;18.27;8.60;;;0.30;99.90;;;;;;5092343;28;20101;-74
2022/12/09 08:09:12;;;;;;;16.50;7.47;;;0.30;99.90;;;;;;5113078;28;20023;-73
2022/12/09 08:11:37;;;;;;;15.53;7.93;;;0.30;99.90;;;;;;5114137;28;20483;-74
2022/12/09 08:14:05;;;;;;;13.13;7.27;;;0.30;99.90;;;;;;5112851;28;20024;-74
2022/12/09 08:16:31;;;;;;;18.30;8.20;;;0.40;99.90;;;;;;5111820;28;20104;-74
2022/12/09 08:18:57;;;;;;;17.20;7.97;;;0.40;99.90;;;;;;5098996;28;20036;-75
2022/12/09 08:21:28;;;;;;;17.33;8.50;;;0.40;99.90;;;;;;5096397;28;20362;-74
2022/12/09 08:23:56;;;;;;;11.75;6.53;;;0.50;99.90;;;;;;5093546;28;20050;-75
2022/12/09 08:26:23;;;;;;;14.83;7.73;;;0.50;99.90;;;;;;5092669;28;20134;-73
2022/12/09 08:28:50;;;;;;;15.43;7.30;;;0.50;99.90;;;;;;5093699;28;20024;-73
2022/12/09 08:31:19;;;;;;;14.10;7.73;;;0.50;99.90;;;;;;5094944;28;20055;-73
2022/12/09 08:33:45;;;;;;;18.30;8.30;;;0.50;99.90;;;;;;5105274;28;20457;-74
2022/12/09 08:36:17;;;;;;;17.57;7.73;;;0.50;99.90;;;;;;5103732;28;20031;-74
2022/12/09 08:38:43;;;;;;;16.60;7.82;;;0.50;99.90;;;;;;5111284;28;20499;-74
2022/12/09 08:41:17;;;;;;;14.00;7.23;;;0.40;99.90;;;;;;5110353;28;20421;-74
2022/12/09 08:43:43;;;;;;;14.93;7.10;;;0.50;99.90;;;;;;5097936;28;20476;-74
2022/12/09 08:46:09;;;;;;;15.03;7.73;;;0.60;99.90;;;;;;5103768;28;20465;-74
2022/12/09 08:48:36;;;;;;;14.60;7.70;;;0.70;99.90;;;;;;5104891;28;20020;-75
2022/12/09 08:51:03;;;;;;;14.33;7.67;;;0.80;99.90;;;;;;5112908;28;20268;-73
2022/12/09 08:53:28;;;;;;;16.20;8.07;;;0.80;99.90;;;;;;5093266;28;20489;-75
2022/12/09 08:55:54;;;;;;;14.77;7.73;;;1.00;99.90;;;;;;5099653;28;20031;-73
2022/12/09 08:58:20;;;;;;;15.90;8.00;;;1.00;99.90;;;;;;5102254;28;20047;-74
2022/12/09 09:00:45;;;;;;;18.53;8.53;;;1.10;99.90;;;;;;5096914;28;20031;-74
2022/12/09 09:03:11;;;;;;;17.00;8.80;;;1.10;99.90;;;;;;5112077;28;20024;-74
2022/12/09 09:05:37;;;;;;;16.07;8.37;;;1.10;99.90;;;;;;5111606;28;20381;-74
2022/12/09 09:08:02;;;;;;;18.57;8.10;;;1.30;99.90;;;;;;5112601;28;20078;-73
2022/12/09 09:10:28;;;;;;;21.00;8.40;;;1.30;99.90;;;;;;5099433;28;20119;-73
2022/12/09 09:12:54;;;;;;;17.70;8.73;;;1.40;99.90;;;;;;5107594;28;20089;-74
2022/12/09 09:15:20;;;;;;;17.50;8.40;;;1.50;99.90;;;;;;5113189;28;20023;-73
2022/12/09 09:17:46;;;;;;;19.03;8.83;;;1.50;99.90;;;;;;5111755;28;20372;-73
2022/12/09 09:20:12;;;;;;;17.70;8.60;;;1.60;99.90;;;;;;5102770;28;20035;-74
2022/12/09 09:22:37;;;;;;;15.50;7.57;;;1.60;99.90;;;;;;5110376;28;20077;-73
2022/12/09 09:25:03;;;;;;;15.83;7.47;;;1.70;99.90;;;;;;5112720;28;20027;-73
2022/12/09 09:27:29;;;;;;;17.30;8.60;;;1.70;99.90;;;;;;5111162;28;20516;-76
2022/12/09 09:29:54;;;;;;;18.53;8.33;;;1.80;99.90;;;;;;5102911;28;20107;-74
2022/12/09 09:32:20;;;;;;;16.37;8.97;;;1.80;99.90;;;;;;5111495;28;20043;-73
2022/12/09 09:34:48;;;;;;;15.93;8.90;;;1.90;99.90;;;;;;5110994;28;20023;-74
2022/12/09 09:37:15;;;;;;;17.60;8.47;;;1.90;99.90;;;;;;5111543;28;20111;-74
2022/12/09 09:39:40;;;;;;;18.20;9.57;;;2.00;99.90;;;;;;5106316;28;20376;-73
2022/12/09 09:42:15;;;;;;;20.97;8.50;;;2.10;99.90;;;;;;5111155;28;20030;-73
2022/12/09 09:44:46;;;;;;;18.13;9.10;;;2.10;99.90;;;;;;5112255;28;20024;-74
2022/12/09 09:47:35;;;;;;;21.40;10.27;;;2.20;99.90;;;;;;5094416;28;20028;-74
2022/12/09 09:50:26;;;;;;;19.63;9.67;;;2.30;99.90;;;;;;5102604;28;20461;-74
2022/12/09 09:52:54;;;;;;;19.00;8.60;;;2.30;99.90;;;;;;5104358;28;20729;-73
2022/12/09 09:55:38;;;;;;;19.50;9.20;;;2.30;99.90;;;;;;5111377;28;20108;-73
2022/12/09 09:58:21;;;;;;;17.53;8.40;;;2.40;99.90;;;;;;5092621;28;20036;-73
2022/12/09 10:00:54;;;;;;;16.63;8.53;;;2.40;99.90;;;;;;5101545;28;20098;-73
2022/12/09 10:03:34;;;;;;;22.10;9.70;;;2.30;99.90;;;;;;5111506;28;20571;-73
2022/12/09 10:06:24;;;;;;;19.40;9.80;;;2.40;99.90;;;;;;5111558;28;20023;-74
2022/12/09 10:09:31;;;;;;;19.77;9.27;;;2.30;99.90;;;;;;5110799;28;20027;-74
2022/12/09 10:11:59;;;;;;;22.03;10.37;;;2.30;99.90;;;;;;5080093;28;20067;-74
2022/12/09 10:14:41;;;;;;;22.50;10.17;;;2.30;99.90;;;;;;5097847;28;20020;-74
2022/12/09 10:17:27;;;;;;;;;;;2.30;99.90;;;;;;5113284;28;20070;-73
2022/12/09 10:20:16;;;;;;;19.13;9.57;;;2.30;99.90;;;;;;5103247;28;20348;-74
2022/12/09 10:22:48;;;;;;;18.63;9.17;;;2.20;99.90;;;;;;5111505;28;20028;-74
2022/12/09 10:25:23;;;;;;;21.03;10.80;;;2.20;99.90;;;;;;5094550;28;20047;-74
2022/12/09 10:27:58;;;;;;;24.40;9.70;;;2.20;99.90;;;;;;5094160;28;20059;-74
2022/12/09 10:30:23;;;;;;;24.47;10.20;;;2.20;99.90;;;;;;5098820;28;20023;-73
2022/12/09 10:32:50;;;;;;;19.20;10.03;;;2.40;99.90;;;;;;5095917;28;20477;-73
2022/12/09 10:35:16;;;;;;;20.17;9.37;;;2.50;99.90;;;;;;5106518;28;20472;-73
2022/12/09 10:37:42;;;;;;;19.67;10.37;;;2.60;99.90;;;;;;5104221;28;20180;-75
2022/12/09 10:40:10;;;;;;;19.13;9.97;;;2.60;99.90;;;;;;5109901;28;20024;-74
2022/12/09 10:45:29;;;;;;;23.48;10.27;;;2.70;99.90;;;;;;5098359;28;20096;-73
2022/12/09 10:47:55;;;;;;;20.83;9.50;;;2.80;99.90;;;;;;5109261;28;20050;-73
2022/12/09 10:50:30;;;;;;;19.23;10.10;;;2.90;99.90;;;;;;5113793;28;20063;-73
2022/12/09 10:52:58;;;;;;;24.93;10.43;;;2.90;99.90;;;;;;5107122;28;20032;-73
2022/12/09 10:55:32;;;;;;;22.47;10.07;;;2.90;99.90;;;;;;5106212;28;20024;-73
2022/12/09 10:58:22;;;;;;;21.50;10.23;;;2.90;99.90;;;;;;5114382;28;20031;-73
2022/12/09 11:01:09;;;;;;;21.43;10.00;;;3.00;99.90;;;;;;5111581;28;20028;-73
2022/12/09 11:03:52;;;;;;;19.47;9.77;;;3.00;99.90;;;;;;5105918;28;20028;-75
2022/12/09 11:06:32;;;;;;;22.57;10.47;;;3.10;99.90;;;;;;5111050;28;20472;-73
2022/12/09 11:09:02;;;;;;;19.40;9.90;;;3.10;99.90;;;;;;5101754;28;20056;-75
2022/12/09 11:11:43;;;;;;;23.57;10.17;;;3.20;99.90;;;;;;5110838;28;20105;-75
2022/12/09 11:14:37;;;;;;;21.40;10.57;;;3.30;99.90;;;;;;5100352;28;20043;-73
2022/12/09 11:17:19;;;;;;;19.63;9.73;;;3.40;99.90;;;;;;5099568;28;20056;-73
2022/12/09 11:19:49;;;;;;;19.73;9.90;;;3.50;99.90;;;;;;5089352;28;20051;-74
2022/12/09 11:22:23;;;;;;;19.17;10.40;;;3.60;99.90;;;;;;5105502;28;20043;-75
2022/12/09 11:24:52;;;;;;;19.90;9.93;;;3.60;99.90;;;;;;5112010;28;20495;-73
2022/12/09 11:27:28;;;;;;;22.20;9.80;;;3.70;99.90;;;;;;5113122;28;20084;-76
2022/12/09 11:30:16;;;;;;;18.77;9.43;;;3.80;99.90;;;;;;5113229;28;20015;-73
2022/12/09 11:32:52;;;;;;;20.00;9.63;;;3.80;99.90;;;;;;5107386;28;20091;-75
2022/12/09 11:35:24;;;;;;;21.20;10.00;;;3.70;99.90;;;;;;5109438;28;20031;-75
2022/12/09 11:37:50;;;;;;;21.27;10.27;;;3.70;99.90;;;;;;5104169;28;20016;-72
2022/12/09 11:40:17;;;;;;;23.77;9.77;;;3.70;99.90;;;;;;5098608;28;20038;-73
2022/12/09 11:42:49;;;;;;;21.50;9.50;;;3.70;99.90;;;;;;5105436;28;20036;-73
2022/12/09 11:45:25;;;;;;;20.67;9.18;;;3.70;99.90;;;;;;5112149;28;20034;-73
2022/12/09 11:47:52;;;;;;;18.37;9.67;;;3.60;99.90;;;;;;5097112;28;20155;-74
2022/12/09 11:50:31;;;;;;;19.50;9.50;;;3.70;99.90;;;;;;5110540;28;20023;-75
2022/12/09 11:53:11;;;;;;;20.80;10.17;;;3.80;99.90;;;;;;5108515;28;20514;-75
2022/12/09 11:55:47;;;;;;;18.73;9.60;;;3.80;99.90;;;;;;5109721;28;20519;-75
2022/12/09 11:58:44;;;;;;;17.73;8.83;;;3.80;99.90;;;;;;5112615;28;20096;-76
2022/12/09 12:01:23;;;;;;;21.13;9.63;;;3.80;99.90;;;;;;5112742;28;20036;-75
2022/12/09 12:04:00;;;;;;;22.27;9.13;;;3.70;99.90;;;;;;5108638;28;20030;-74
2022/12/09 12:06:33;;;;;;;21.57;9.60;;;3.70;99.90;;;;;;5110938;28;20027;-74
2022/12/09 12:09:14;;;;;;;22.07;9.83;;;3.60;99.90;;;;;;5106691;28;20484;-75
2022/12/09 12:11:50;;;;;;;20.37;9.53;;;3.60;99.90;;;;;;5101341;28;20023;-76
2022/12/09 12:14:21;;;;;;;19.40;9.47;;;3.70;99.90;;;;;;5108169;28;20039;-76
2022/12/09 12:16:57;;;;;;;17.15;8.90;;;3.80;99.90;;;;;;5099700;28;20067;-76
2022/12/09 12:19:43;;;;;;;20.97;9.53;;;3.90;99.90;;;;;;5101545;28;20065;-75
2022/12/09 12:22:37;;;;;;;19.83;9.13;;;3.90;99.90;;;;;;5095550;28;20032;-74
2022/12/09 12:25:40;;;;;;;19.60;9.53;;;4.00;99.90;;;;;;5107401;28;20085;-73
2022/12/09 12:28:20;;;;;;;17.40;8.33;;;4.00;99.90;;;;;;5095485;28;20387;-73
2022/12/09 12:31:26;;;;;;;18.60;9.30;;;4.00;99.90;;;;;;5091322;28;20674;-73
2022/12/09 12:33:57;;;;;;;19.17;8.80;;;4.10;99.90;;;;;;5095611;28;20028;-75
2022/12/09 12:36:59;;;;;;;18.65;9.50;;;4.30;99.90;;;;;;5096074;28;20032;-73
2022/12/09 12:40:15;;;;;;;19.33;9.57;;;4.60;99.90;;;;;;5108320;28;20481;-74
2022/12/09 12:46:17;;;;;;;17.60;8.73;;;4.60;99.90;;;;;;5015062;28;20030;-73
2022/12/09 12:48:53;;;;;;;18.83;9.20;;;4.60;99.90;;;;;;5024564;28;20145;-73
2022/12/09 12:51:39;;;;;;;17.80;9.00;;;4.50;99.90;;;;;;5015185;28;20029;-75
2022/12/09 12:54:30;;;;;;;19.83;9.63;;;4.40;99.90;;;;;;4991700;28;20038;-74
2022/12/09 12:57:22;;;;;;;17.57;9.20;;;4.40;99.90;;;;;;5015533;28;20026;-74
2022/12/09 13:00:06;;;;;;;;;;;4.40;99.90;;;;;;5012643;28;20115;-77
2022/12/09 13:02:47;;;;;;;20.17;8.27;;;4.40;99.90;;;;;;5030025;28;19947;-76
2022/12/09 13:05:28;;;;;;;18.27;8.70;;;4.40;99.90;;;;;;5026078;28;20041;-76
2022/12/09 13:08:12;;;;;;;19.43;8.57;;;4.40;99.90;;;;;;5025035;28;20036;-75
2022/12/09 13:10:41;;;;;;;18.83;9.17;;;4.40;99.90;;;;;;5023431;28;20418;-74